Terminal Aerodrome Forecast
Issued by NWS Huntsville, AL

Home | Current Version | Previous Version | Text Only | Print | Product List | Glossary On
Versions: 1 2 3 4 5 6 7 8 9 10 11 12 13 14 15 16 17 18 19 20 21 22 23 24
150
FTUS44 KHUN 261143
TAFMSL
TAF
KMSL 261143Z 2612/2712 14004KT P6SM FEW090
     FM261500 20008KT P6SM SCT050 SCT300
     FM262300 16006KT P6SM BKN300
     FM270900 14004KT P6SM SCT030 SCT070 BKN250=

USA.gov is the U.S. government's official web portal to all federal, state and local government web resources and services.